sensor_id;sensor_type;location;lat;lon;timestamp;P1;durP1;ratioP1;P2;durP2;ratioP2
33858;SDS011;20156;47.486;12.074;2022-09-12T00:00:25;3.28;;;2.97;;
33858;SDS011;20156;47.486;12.074;2022-09-12T00:02:54;3.60;;;2.90;;
33858;SDS011;20156;47.486;12.074;2022-09-12T00:05:20;2.90;;;2.70;;
33858;SDS011;20156;47.486;12.074;2022-09-12T00:07:46;5.45;;;2.70;;
33858;SDS011;20156;47.486;12.074;2022-09-12T00:10:12;3.53;;;3.22;;
33858;SDS011;20156;47.486;12.074;2022-09-12T00:12:38;7.72;;;3.00;;
33858;SDS011;20156;47.486;12.074;2022-09-12T00:15:04;5.28;;;2.92;;
33858;SDS011;20156;47.486;12.074;2022-09-12T00:17:32;4.75;;;2.60;;
33858;SDS011;20156;47.486;12.074;2022-09-12T00:19:59;4.50;;;2.75;;
33858;SDS011;20156;47.486;12.074;2022-09-12T00:22:24;4.60;;;3.30;;
33858;SDS011;20156;47.486;12.074;2022-09-12T00:24:50;3.20;;;2.90;;
33858;SDS011;20156;47.486;12.074;2022-09-12T00:27:15;3.45;;;3.15;;
33858;SDS011;20156;47.486;12.074;2022-09-12T00:29:41;3.40;;;3.10;;
33858;SDS011;20156;47.486;12.074;2022-09-12T00:32:07;3.42;;;3.10;;
33858;SDS011;20156;47.486;12.074;2022-09-12T00:34:32;3.47;;;3.17;;
33858;SDS011;20156;47.486;12.074;2022-09-12T00:36:57;3.30;;;3.00;;
33858;SDS011;20156;47.486;12.074;2022-09-12T00:39:23;3.35;;;2.67;;
33858;SDS011;20156;47.486;12.074;2022-09-12T00:41:48;3.38;;;2.30;;
33858;SDS011;20156;47.486;12.074;2022-09-12T00:46:40;3.17;;;2.88;;
33858;SDS011;20156;47.486;12.074;2022-09-12T00:51:54;3.42;;;3.13;;
33858;SDS011;20156;47.486;12.074;2022-09-12T00:54:26;3.65;;;2.92;;
33858;SDS011;20156;47.486;12.074;2022-09-12T00:56:55;5.72;;;3.85;;
33858;SDS011;20156;47.486;12.074;2022-09-12T00:59:31;3.33;;;3.03;;
33858;SDS011;20156;47.486;12.074;2022-09-12T01:02:02;4.47;;;2.80;;
33858;SDS011;20156;47.486;12.074;2022-09-12T01:04:27;3.30;;;3.00;;
33858;SDS011;20156;47.486;12.074;2022-09-12T01:06:54;4.13;;;3.53;;
33858;SDS011;20156;47.486;12.074;2022-09-12T01:09:22;4.85;;;3.35;;
33858;SDS011;20156;47.486;12.074;2022-09-12T01:11:49;6.13;;;3.25;;
33858;SDS011;20156;47.486;12.074;2022-09-12T01:14:17;3.65;;;3.35;;
33858;SDS011;20156;47.486;12.074;2022-09-12T01:16:44;3.13;;;2.83;;
33858;SDS011;20156;47.486;12.074;2022-09-12T01:25:09;3.45;;;3.15;;
33858;SDS011;20156;47.486;12.074;2022-09-12T01:46:46;3.95;;;2.90;;
33858;SDS011;20156;47.486;12.074;2022-09-12T01:52:27;4.82;;;2.38;;
33858;SDS011;20156;47.486;12.074;2022-09-12T01:54:58;3.30;;;2.53;;
33858;SDS011;20156;47.486;12.074;2022-09-12T01:57:32;3.05;;;2.80;;
33858;SDS011;20156;47.486;12.074;2022-09-12T02:00:04;3.00;;;2.70;;
33858;SDS011;20156;47.486;12.074;2022-09-12T02:02:34;3.90;;;2.55;;
33858;SDS011;20156;47.486;12.074;2022-09-12T02:05:07;4.05;;;2.88;;
33858;SDS011;20156;47.486;12.074;2022-09-12T02:07:48;2.70;;;2.50;;
33858;SDS011;20156;47.486;12.074;2022-09-12T02:10:22;2.97;;;2.67;;
33858;SDS011;20156;47.486;12.074;2022-09-12T02:12:55;3.72;;;3.42;;
33858;SDS011;20156;47.486;12.074;2022-09-12T02:15:26;4.47;;;2.95;;
33858;SDS011;20156;47.486;12.074;2022-09-12T02:17:56;4.50;;;2.80;;
33858;SDS011;20156;47.486;12.074;2022-09-12T02:20:26;3.55;;;2.80;;
33858;SDS011;20156;47.486;12.074;2022-09-12T02:22:55;4.57;;;3.55;;
33858;SDS011;20156;47.486;12.074;2022-09-12T02:25:21;3.53;;;3.22;;
33858;SDS011;20156;47.486;12.074;2022-09-12T02:27:51;2.80;;;2.60;;
33858;SDS011;20156;47.486;12.074;2022-09-12T02:30:21;6.70;;;2.60;;
33858;SDS011;20156;47.486;12.074;2022-09-12T02:33:35;3.08;;;2.50;;
33858;SDS011;20156;47.486;12.074;2022-09-12T02:35:57;5.07;;;3.15;;
33858;SDS011;20156;47.486;12.074;2022-09-12T02:38:52;3.20;;;2.83;;
33858;SDS011;20156;47.486;12.074;2022-09-12T02:41:20;3.50;;;3.20;;
33858;SDS011;20156;47.486;12.074;2022-09-12T02:43:46;4.10;;;3.13;;
33858;SDS011;20156;47.486;12.074;2022-09-12T02:46:21;3.63;;;3.33;;
33858;SDS011;20156;47.486;12.074;2022-09-12T02:49:00;6.03;;;2.92;;
33858;SDS011;20156;47.486;12.074;2022-09-12T02:51:26;3.20;;;3.00;;
33858;SDS011;20156;47.486;12.074;2022-09-12T02:53:51;2.97;;;2.78;;
33858;SDS011;20156;47.486;12.074;2022-09-12T02:56:19;4.57;;;3.17;;
33858;SDS011;20156;47.486;12.074;2022-09-12T02:58:51;3.78;;;3.17;;
33858;SDS011;20156;47.486;12.074;2022-09-12T03:21:05;3.78;;;3.42;;
33858;SDS011;20156;47.486;12.074;2022-09-12T03:26:30;3.65;;;3.30;;
33858;SDS011;20156;47.486;12.074;2022-09-12T03:29:02;4.25;;;3.67;;
33858;SDS011;20156;47.486;12.074;2022-09-12T03:31:30;4.50;;;3.58;;
33858;SDS011;20156;47.486;12.074;2022-09-12T03:33:56;3.60;;;3.30;;
33858;SDS011;20156;47.486;12.074;2022-09-12T03:36:24;5.20;;;3.85;;
33858;SDS011;20156;47.486;12.074;2022-09-12T03:38:51;5.57;;;4.05;;
33858;SDS011;20156;47.486;12.074;2022-09-12T03:41:17;4.65;;;3.88;;
33858;SDS011;20156;47.486;12.074;2022-09-12T03:43:43;10.20;;;3.47;;
33858;SDS011;20156;47.486;12.074;2022-09-12T03:46:08;5.00;;;3.72;;
33858;SDS011;20156;47.486;12.074;2022-09-12T03:48:34;4.50;;;3.30;;
33858;SDS011;20156;47.486;12.074;2022-09-12T03:51:01;3.70;;;3.38;;
33858;SDS011;20156;47.486;12.074;2022-09-12T03:53:29;3.72;;;3.15;;
33858;SDS011;20156;47.486;12.074;2022-09-12T03:55:55;4.15;;;3.75;;
33858;SDS011;20156;47.486;12.074;2022-09-12T03:58:20;5.75;;;3.28;;
33858;SDS011;20156;47.486;12.074;2022-09-12T04:00:46;3.50;;;3.05;;
33858;SDS011;20156;47.486;12.074;2022-09-12T04:03:11;2.95;;;2.72;;
33858;SDS011;20156;47.486;12.074;2022-09-12T04:05:36;5.55;;;4.78;;
33858;SDS011;20156;47.486;12.074;2022-09-12T04:08:02;3.90;;;3.53;;
33858;SDS011;20156;47.486;12.074;2022-09-12T04:10:27;3.90;;;3.47;;
33858;SDS011;20156;47.486;12.074;2022-09-12T04:12:53;4.65;;;3.92;;
33858;SDS011;20156;47.486;12.074;2022-09-12T04:15:18;4.13;;;3.72;;
33858;SDS011;20156;47.486;12.074;2022-09-12T04:17:43;4.45;;;3.67;;
33858;SDS011;20156;47.486;12.074;2022-09-12T04:20:09;5.60;;;4.82;;
33858;SDS011;20156;47.486;12.074;2022-09-12T04:22:34;6.85;;;4.50;;
33858;SDS011;20156;47.486;12.074;2022-09-12T04:25:00;4.57;;;4.15;;
33858;SDS011;20156;47.486;12.074;2022-09-12T04:27:26;4.40;;;4.00;;
33858;SDS011;20156;47.486;12.074;2022-09-12T04:29:51;4.05;;;3.70;;
33858;SDS011;20156;47.486;12.074;2022-09-12T04:32:18;4.50;;;3.45;;
33858;SDS011;20156;47.486;12.074;2022-09-12T04:34:44;4.45;;;4.05;;
33858;SDS011;20156;47.486;12.074;2022-09-12T04:37:11;4.65;;;3.58;;
33858;SDS011;20156;47.486;12.074;2022-09-12T04:39:36;4.95;;;3.80;;
33858;SDS011;20156;47.486;12.074;2022-09-12T04:42:02;5.95;;;3.33;;
33858;SDS011;20156;47.486;12.074;2022-09-12T04:44:28;5.05;;;4.00;;
33858;SDS011;20156;47.486;12.074;2022-09-12T04:46:55;3.85;;;3.55;;
33858;SDS011;20156;47.486;12.074;2022-09-12T04:49:21;4.88;;;3.53;;
33858;SDS011;20156;47.486;12.074;2022-09-12T04:51:47;9.60;;;4.00;;
33858;SDS011;20156;47.486;12.074;2022-09-12T04:54:17;6.65;;;5.57;;
33858;SDS011;20156;47.486;12.074;2022-09-12T04:56:44;4.97;;;3.97;;
33858;SDS011;20156;47.486;12.074;2022-09-12T04:59:12;6.65;;;5.13;;
33858;SDS011;20156;47.486;12.074;2022-09-12T05:01:40;6.55;;;5.30;;
33858;SDS011;20156;47.486;12.074;2022-09-12T05:04:06;9.38;;;5.18;;
33858;SDS011;20156;47.486;12.074;2022-09-12T05:06:33;8.07;;;5.25;;
33858;SDS011;20156;47.486;12.074;2022-09-12T05:08:59;5.35;;;4.75;;
33858;SDS011;20156;47.486;12.074;2022-09-12T05:11:27;7.78;;;4.22;;
33858;SDS011;20156;47.486;12.074;2022-09-12T05:13:54;4.40;;;4.00;;
33858;SDS011;20156;47.486;12.074;2022-09-12T05:16:20;5.70;;;4.53;;
33858;SDS011;20156;47.486;12.074;2022-09-12T05:18:46;9.33;;;5.87;;
33858;SDS011;20156;47.486;12.074;2022-09-12T05:21:16;8.55;;;4.78;;
33858;SDS011;20156;47.486;12.074;2022-09-12T05:23:44;4.50;;;4.10;;
33858;SDS011;20156;47.486;12.074;2022-09-12T05:26:12;4.20;;;3.80;;
33858;SDS011;20156;47.486;12.074;2022-09-12T05:28:39;4.80;;;3.83;;
33858;SDS011;20156;47.486;12.074;2022-09-12T05:31:12;4.20;;;3.80;;
33858;SDS011;20156;47.486;12.074;2022-09-12T05:33:39;5.37;;;4.10;;
33858;SDS011;20156;47.486;12.074;2022-09-12T05:36:08;4.43;;;3.90;;
33858;SDS011;20156;47.486;12.074;2022-09-12T05:38:36;4.03;;;3.73;;
33858;SDS011;20156;47.486;12.074;2022-09-12T05:41:23;4.80;;;4.40;;
33858;SDS011;20156;47.486;12.074;2022-09-12T05:43:55;8.73;;;4.53;;
33858;SDS011;20156;47.486;12.074;2022-09-12T05:46:23;5.83;;;5.20;;
33858;SDS011;20156;47.486;12.074;2022-09-12T05:48:50;7.90;;;5.40;;
33858;SDS011;20156;47.486;12.074;2022-09-12T05:51:20;9.47;;;6.83;;
33858;SDS011;20156;47.486;12.074;2022-09-12T05:53:48;4.95;;;4.00;;
33858;SDS011;20156;47.486;12.074;2022-09-12T05:56:17;5.90;;;4.43;;
33858;SDS011;20156;47.486;12.074;2022-09-12T05:58:45;6.43;;;4.88;;
33858;SDS011;20156;47.486;12.074;2022-09-12T06:01:13;5.80;;;4.18;;
33858;SDS011;20156;47.486;12.074;2022-09-12T06:03:41;5.40;;;4.90;;
33858;SDS011;20156;47.486;12.074;2022-09-12T06:06:08;5.57;;;4.15;;
33858;SDS011;20156;47.486;12.074;2022-09-12T06:08:38;5.80;;;3.67;;
33858;SDS011;20156;47.486;12.074;2022-09-12T06:11:05;5.32;;;3.70;;
33858;SDS011;20156;47.486;12.074;2022-09-12T06:13:32;3.80;;;3.42;;
33858;SDS011;20156;47.486;12.074;2022-09-12T06:18:32;16.55;;;13.20;;
33858;SDS011;20156;47.486;12.074;2022-09-12T06:21:02;16.33;;;12.05;;
33858;SDS011;20156;47.486;12.074;2022-09-12T06:23:35;11.20;;;9.75;;
33858;SDS011;20156;47.486;12.074;2022-09-12T06:26:01;13.98;;;9.30;;
33858;SDS011;20156;47.486;12.074;2022-09-12T06:28:28;10.35;;;7.75;;
33858;SDS011;20156;47.486;12.074;2022-09-12T06:31:00;9.55;;;7.10;;
33858;SDS011;20156;47.486;12.074;2022-09-12T06:33:28;11.98;;;9.43;;
33858;SDS011;20156;47.486;12.074;2022-09-12T06:35:54;10.70;;;8.77;;
33858;SDS011;20156;47.486;12.074;2022-09-12T06:38:19;13.85;;;11.15;;
33858;SDS011;20156;47.486;12.074;2022-09-12T06:40:44;20.15;;;13.07;;
33858;SDS011;20156;47.486;12.074;2022-09-12T06:43:13;15.77;;;11.10;;
33858;SDS011;20156;47.486;12.074;2022-09-12T06:45:38;18.92;;;14.88;;
33858;SDS011;20156;47.486;12.074;2022-09-12T06:48:04;13.63;;;11.10;;
33858;SDS011;20156;47.486;12.074;2022-09-12T06:50:30;10.77;;;8.48;;
33858;SDS011;20156;47.486;12.074;2022-09-12T06:52:55;11.38;;;9.50;;
33858;SDS011;20156;47.486;12.074;2022-09-12T06:55:21;20.05;;;12.75;;
33858;SDS011;20156;47.486;12.074;2022-09-12T06:57:48;13.00;;;9.63;;
33858;SDS011;20156;47.486;12.074;2022-09-12T07:00:13;17.73;;;12.77;;
33858;SDS011;20156;47.486;12.074;2022-09-12T07:02:39;14.23;;;11.73;;
33858;SDS011;20156;47.486;12.074;2022-09-12T07:05:04;12.07;;;9.05;;
33858;SDS011;20156;47.486;12.074;2022-09-12T07:07:30;7.20;;;5.63;;
33858;SDS011;20156;47.486;12.074;2022-09-12T07:09:58;14.25;;;10.57;;
33858;SDS011;20156;47.486;12.074;2022-09-12T07:12:24;13.07;;;10.23;;
33858;SDS011;20156;47.486;12.074;2022-09-12T07:14:52;10.88;;;7.72;;
33858;SDS011;20156;47.486;12.074;2022-09-12T07:17:17;12.55;;;9.55;;
33858;SDS011;20156;47.486;12.074;2022-09-12T07:19:43;8.68;;;7.40;;
33858;SDS011;20156;47.486;12.074;2022-09-12T07:22:08;17.52;;;13.63;;
33858;SDS011;20156;47.486;12.074;2022-09-12T07:24:34;9.85;;;7.78;;
33858;SDS011;20156;47.486;12.074;2022-09-12T07:26:59;10.05;;;8.70;;
33858;SDS011;20156;47.486;12.074;2022-09-12T07:29:24;11.45;;;9.80;;
33858;SDS011;20156;47.486;12.074;2022-09-12T07:31:50;9.50;;;5.82;;
33858;SDS011;20156;47.486;12.074;2022-09-12T07:34:15;18.05;;;11.73;;
33858;SDS011;20156;47.486;12.074;2022-09-12T07:36:41;13.20;;;9.82;;
33858;SDS011;20156;47.486;12.074;2022-09-12T07:39:06;13.15;;;10.40;;
33858;SDS011;20156;47.486;12.074;2022-09-12T07:41:32;16.33;;;10.98;;
33858;SDS011;20156;47.486;12.074;2022-09-12T07:43:58;9.40;;;7.55;;
33858;SDS011;20156;47.486;12.074;2022-09-12T07:46:25;16.10;;;9.85;;
33858;SDS011;20156;47.486;12.074;2022-09-12T07:48:53;16.73;;;10.88;;
33858;SDS011;20156;47.486;12.074;2022-09-12T07:51:20;17.13;;;11.90;;
33858;SDS011;20156;47.486;12.074;2022-09-12T07:53:46;15.55;;;11.68;;
33858;SDS011;20156;47.486;12.074;2022-09-12T07:56:13;17.15;;;12.27;;
33858;SDS011;20156;47.486;12.074;2022-09-12T07:58:40;14.93;;;11.45;;
33858;SDS011;20156;47.486;12.074;2022-09-12T08:01:07;12.45;;;10.13;;
33858;SDS011;20156;47.486;12.074;2022-09-12T08:03:37;16.38;;;11.32;;
33858;SDS011;20156;47.486;12.074;2022-09-12T08:06:07;8.10;;;6.65;;
33858;SDS011;20156;47.486;12.074;2022-09-12T08:08:34;11.75;;;8.48;;
33858;SDS011;20156;47.486;12.074;2022-09-12T08:11:00;8.25;;;7.00;;
33858;SDS011;20156;47.486;12.074;2022-09-12T08:13:29;10.80;;;7.65;;
33858;SDS011;20156;47.486;12.074;2022-09-12T08:15:58;5.70;;;5.20;;
33858;SDS011;20156;47.486;12.074;2022-09-12T08:18:26;9.00;;;6.13;;
33858;SDS011;20156;47.486;12.074;2022-09-12T08:20:56;8.68;;;6.43;;
33858;SDS011;20156;47.486;12.074;2022-09-12T08:23:22;4.88;;;3.67;;
33858;SDS011;20156;47.486;12.074;2022-09-12T08:25:49;5.07;;;4.18;;
33858;SDS011;20156;47.486;12.074;2022-09-12T08:28:14;7.07;;;4.10;;
33858;SDS011;20156;47.486;12.074;2022-09-12T08:30:40;5.03;;;4.55;;
33858;SDS011;20156;47.486;12.074;2022-09-12T08:33:06;4.88;;;4.40;;
33858;SDS011;20156;47.486;12.074;2022-09-12T08:35:31;3.95;;;3.40;;
33858;SDS011;20156;47.486;12.074;2022-09-12T08:37:57;3.63;;;2.35;;
33858;SDS011;20156;47.486;12.074;2022-09-12T08:40:22;4.43;;;4.03;;
33858;SDS011;20156;47.486;12.074;2022-09-12T08:42:51;5.80;;;3.92;;
33858;SDS011;20156;47.486;12.074;2022-09-12T08:46:12;4.25;;;3.80;;
33858;SDS011;20156;47.486;12.074;2022-09-12T08:49:03;3.60;;;3.30;;
33858;SDS011;20156;47.486;12.074;2022-09-12T08:51:34;3.80;;;3.42;;
33858;SDS011;20156;47.486;12.074;2022-09-12T08:54:01;2.40;;;2.20;;
33858;SDS011;20156;47.486;12.074;2022-09-12T08:56:35;4.65;;;2.90;;
33858;SDS011;20156;47.486;12.074;2022-09-12T08:59:01;5.72;;;4.78;;
33858;SDS011;20156;47.486;12.074;2022-09-12T09:01:31;3.53;;;2.33;;
33858;SDS011;20156;47.486;12.074;2022-09-12T09:25:54;3.38;;;2.70;;
33858;SDS011;20156;47.486;12.074;2022-09-12T09:28:22;2.90;;;2.00;;
33858;SDS011;20156;47.486;12.074;2022-09-12T09:30:55;2.35;;;1.60;;
33858;SDS011;20156;47.486;12.074;2022-09-12T09:33:23;2.70;;;1.75;;
33858;SDS011;20156;47.486;12.074;2022-09-12T09:41:25;1.90;;;1.65;;
33858;SDS011;20156;47.486;12.074;2022-09-12T09:44:10;2.83;;;1.60;;
33858;SDS011;20156;47.486;12.074;2022-09-12T09:46:36;1.85;;;1.75;;
33858;SDS011;20156;47.486;12.074;2022-09-12T09:49:02;1.80;;;1.70;;
33858;SDS011;20156;47.486;12.074;2022-09-12T09:51:35;1.60;;;1.50;;
33858;SDS011;20156;47.486;12.074;2022-09-12T09:54:07;1.60;;;1.50;;
33858;SDS011;20156;47.486;12.074;2022-09-12T09:56:41;3.13;;;1.80;;
33858;SDS011;20156;47.486;12.074;2022-09-12T10:01:54;1.70;;;1.60;;
33858;SDS011;20156;47.486;12.074;2022-09-12T10:04:30;1.65;;;1.55;;
33858;SDS011;20156;47.486;12.074;2022-09-12T10:06:59;1.65;;;1.55;;
33858;SDS011;20156;47.486;12.074;2022-09-12T10:09:31;1.73;;;1.63;;
33858;SDS011;20156;47.486;12.074;2022-09-12T10:11:58;1.90;;;1.70;;
33858;SDS011;20156;47.486;12.074;2022-09-12T10:14:39;1.70;;;1.60;;
33858;SDS011;20156;47.486;12.074;2022-09-12T10:17:48;1.67;;;1.58;;
33858;SDS011;20156;47.486;12.074;2022-09-12T10:20:41;2.50;;;1.75;;
33858;SDS011;20156;47.486;12.074;2022-09-12T10:23:03;3.40;;;1.90;;
33858;SDS011;20156;47.486;12.074;2022-09-12T10:25:47;1.65;;;1.55;;
33858;SDS011;20156;47.486;12.074;2022-09-12T10:28:20;1.70;;;1.60;;
33858;SDS011;20156;47.486;12.074;2022-09-12T10:30:53;1.67;;;1.58;;
33858;SDS011;20156;47.486;12.074;2022-09-12T10:33:20;1.55;;;1.45;;
33858;SDS011;20156;47.486;12.074;2022-09-12T10:35:48;2.05;;;1.30;;
33858;SDS011;20156;47.486;12.074;2022-09-12T10:38:20;4.05;;;1.60;;
33858;SDS011;20156;47.486;12.074;2022-09-12T10:40:55;3.30;;;1.45;;
33858;SDS011;20156;47.486;12.074;2022-09-12T10:43:28;1.92;;;1.73;;
33858;SDS011;20156;47.486;12.074;2022-09-12T10:48:42;2.22;;;1.40;;
33858;SDS011;20156;47.486;12.074;2022-09-12T10:51:25;1.92;;;1.70;;
33858;SDS011;20156;47.486;12.074;2022-09-12T10:54:00;1.60;;;1.50;;
33858;SDS011;20156;47.486;12.074;2022-09-12T11:01:57;1.77;;;1.67;;
33858;SDS011;20156;47.486;12.074;2022-09-12T11:15:06;3.33;;;1.83;;
33858;SDS011;20156;47.486;12.074;2022-09-12T11:20:43;2.72;;;2.10;;
33858;SDS011;20156;47.486;12.074;2022-09-12T11:26:23;1.60;;;1.50;;
33858;SDS011;20156;47.486;12.074;2022-09-12T11:43:04;1.50;;;1.38;;
33858;SDS011;20156;47.486;12.074;2022-09-12T11:45:45;1.90;;;1.70;;
33858;SDS011;20156;47.486;12.074;2022-09-12T11:51:16;2.80;;;1.25;;
33858;SDS011;20156;47.486;12.074;2022-09-12T11:53:45;1.92;;;1.40;;
33858;SDS011;20156;47.486;12.074;2022-09-12T11:56:20;1.25;;;1.20;;
33858;SDS011;20156;47.486;12.074;2022-09-12T11:58:49;2.28;;;1.20;;
33858;SDS011;20156;47.486;12.074;2022-09-12T12:01:20;1.40;;;1.30;;
33858;SDS011;20156;47.486;12.074;2022-09-12T12:03:51;1.27;;;1.10;;
33858;SDS011;20156;47.486;12.074;2022-09-12T12:06:26;1.23;;;1.10;;
33858;SDS011;20156;47.486;12.074;2022-09-12T12:08:55;1.20;;;1.20;;
33858;SDS011;20156;47.486;12.074;2022-09-12T12:11:33;2.42;;;1.23;;
33858;SDS011;20156;47.486;12.074;2022-09-12T12:16:50;1.15;;;1.13;;
33858;SDS011;20156;47.486;12.074;2022-09-12T12:21:45;2.38;;;1.80;;
33858;SDS011;20156;47.486;12.074;2022-09-12T12:24:22;1.70;;;1.25;;
33858;SDS011;20156;47.486;12.074;2022-09-12T12:47:59;1.25;;;1.25;;
33858;SDS011;20156;47.486;12.074;2022-09-12T12:50:32;1.38;;;1.30;;
33858;SDS011;20156;47.486;12.074;2022-09-12T12:52:58;1.30;;;1.20;;
33858;SDS011;20156;47.486;12.074;2022-09-12T12:55:46;1.48;;;1.38;;
33858;SDS011;20156;47.486;12.074;2022-09-12T12:58:32;1.00;;;1.00;;
33858;SDS011;20156;47.486;12.074;2022-09-12T13:01:14;1.15;;;1.13;;
33858;SDS011;20156;47.486;12.074;2022-09-12T13:03:43;2.13;;;1.00;;
33858;SDS011;20156;47.486;12.074;2022-09-12T13:09:06;3.78;;;2.38;;
33858;SDS011;20156;47.486;12.074;2022-09-12T13:11:38;3.25;;;1.95;;
33858;SDS011;20156;47.486;12.074;2022-09-12T13:14:06;1.75;;;1.33;;
33858;SDS011;20156;47.486;12.074;2022-09-12T13:17:05;1.23;;;1.10;;
33858;SDS011;20156;47.486;12.074;2022-09-12T13:19:33;1.70;;;1.00;;
33858;SDS011;20156;47.486;12.074;2022-09-12T13:22:02;2.22;;;1.20;;
33858;SDS011;20156;47.486;12.074;2022-09-12T13:24:30;1.00;;;0.90;;
33858;SDS011;20156;47.486;12.074;2022-09-12T13:26:55;0.77;;;0.77;;
33858;SDS011;20156;47.486;12.074;2022-09-12T13:29:25;1.25;;;1.15;;
33858;SDS011;20156;47.486;12.074;2022-09-12T13:31:52;1.10;;;1.00;;
33858;SDS011;20156;47.486;12.074;2022-09-12T13:34:23;1.17;;;1.08;;
33858;SDS011;20156;47.486;12.074;2022-09-12T13:39:45;1.00;;;1.00;;
33858;SDS011;20156;47.486;12.074;2022-09-12T13:47:44;0.80;;;0.80;;
33858;SDS011;20156;47.486;12.074;2022-09-12T13:50:22;1.83;;;0.90;;
33858;SDS011;20156;47.486;12.074;2022-09-12T13:52:51;0.88;;;0.88;;
33858;SDS011;20156;47.486;12.074;2022-09-12T13:55:29;2.03;;;0.80;;
33858;SDS011;20156;47.486;12.074;2022-09-12T14:00:29;1.08;;;0.85;;
33858;SDS011;20156;47.486;12.074;2022-09-12T14:02:56;2.15;;;1.10;;
33858;SDS011;20156;47.486;12.074;2022-09-12T14:05:41;1.10;;;1.10;;
33858;SDS011;20156;47.486;12.074;2022-09-12T14:08:11;1.65;;;1.02;;
33858;SDS011;20156;47.486;12.074;2022-09-12T14:10:44;1.33;;;0.90;;
33858;SDS011;20156;47.486;12.074;2022-09-12T14:13:21;1.20;;;1.10;;
33858;SDS011;20156;47.486;12.074;2022-09-12T14:15:51;0.75;;;0.75;;
33858;SDS011;20156;47.486;12.074;2022-09-12T14:18:23;3.63;;;1.30;;
33858;SDS011;20156;47.486;12.074;2022-09-12T14:20:50;1.67;;;1.30;;
33858;SDS011;20156;47.486;12.074;2022-09-12T14:25:55;1.30;;;1.20;;
33858;SDS011;20156;47.486;12.074;2022-09-12T14:28:22;1.33;;;1.23;;
33858;SDS011;20156;47.486;12.074;2022-09-12T14:30:56;1.10;;;1.05;;
33858;SDS011;20156;47.486;12.074;2022-09-12T14:33:22;1.40;;;1.30;;
33858;SDS011;20156;47.486;12.074;2022-09-12T14:35:51;1.75;;;1.30;;
33858;SDS011;20156;47.486;12.074;2022-09-12T14:38:35;2.08;;;1.10;;
33858;SDS011;20156;47.486;12.074;2022-09-12T14:41:08;1.25;;;1.08;;
33858;SDS011;20156;47.486;12.074;2022-09-12T14:43:36;1.42;;;1.33;;
33858;SDS011;20156;47.486;12.074;2022-09-12T14:46:05;1.60;;;1.38;;
33858;SDS011;20156;47.486;12.074;2022-09-12T14:48:42;1.10;;;1.10;;
33858;SDS011;20156;47.486;12.074;2022-09-12T14:51:21;1.20;;;1.10;;
33858;SDS011;20156;47.486;12.074;2022-09-12T14:53:51;1.25;;;1.20;;
33858;SDS011;20156;47.486;12.074;2022-09-12T14:56:18;1.38;;;1.27;;
33858;SDS011;20156;47.486;12.074;2022-09-12T14:58:45;1.98;;;1.40;;
33858;SDS011;20156;47.486;12.074;2022-09-12T15:06:31;1.60;;;1.50;;
33858;SDS011;20156;47.486;12.074;2022-09-12T15:09:12;1.40;;;1.30;;
33858;SDS011;20156;47.486;12.074;2022-09-12T15:11:38;2.20;;;1.40;;
33858;SDS011;20156;47.486;12.074;2022-09-12T15:14:13;1.60;;;1.30;;
33858;SDS011;20156;47.486;12.074;2022-09-12T15:16:39;1.55;;;1.45;;
33858;SDS011;20156;47.486;12.074;2022-09-12T15:19:05;2.05;;;1.30;;
33858;SDS011;20156;47.486;12.074;2022-09-12T15:21:31;1.55;;;1.45;;
33858;SDS011;20156;47.486;12.074;2022-09-12T15:23:56;1.90;;;1.48;;
33858;SDS011;20156;47.486;12.074;2022-09-12T15:26:22;1.40;;;1.30;;
33858;SDS011;20156;47.486;12.074;2022-09-12T15:28:51;1.58;;;1.25;;
33858;SDS011;20156;47.486;12.074;2022-09-12T15:31:29;2.05;;;1.60;;
33858;SDS011;20156;47.486;12.074;2022-09-12T15:33:56;1.48;;;1.38;;
33858;SDS011;20156;47.486;12.074;2022-09-12T15:36:23;2.20;;;1.52;;
33858;SDS011;20156;47.486;12.074;2022-09-12T15:38:49;2.08;;;1.70;;
33858;SDS011;20156;47.486;12.074;2022-09-12T15:43:54;1.60;;;1.50;;
33858;SDS011;20156;47.486;12.074;2022-09-12T15:46:20;1.45;;;1.35;;
33858;SDS011;20156;47.486;12.074;2022-09-12T15:48:46;2.35;;;1.35;;
33858;SDS011;20156;47.486;12.074;2022-09-12T15:51:15;1.52;;;1.42;;
33858;SDS011;20156;47.486;12.074;2022-09-12T15:53:43;1.98;;;1.25;;
33858;SDS011;20156;47.486;12.074;2022-09-12T15:56:09;1.98;;;1.45;;
33858;SDS011;20156;47.486;12.074;2022-09-12T15:58:35;3.15;;;1.65;;
33858;SDS011;20156;47.486;12.074;2022-09-12T16:01:00;1.77;;;1.30;;
33858;SDS011;20156;47.486;12.074;2022-09-12T16:03:27;1.90;;;1.40;;
33858;SDS011;20156;47.486;12.074;2022-09-12T16:05:54;1.70;;;1.60;;
33858;SDS011;20156;47.486;12.074;2022-09-12T16:08:29;2.05;;;1.52;;
33858;SDS011;20156;47.486;12.074;2022-09-12T16:11:01;1.63;;;1.52;;
33858;SDS011;20156;47.486;12.074;2022-09-12T16:13:29;2.75;;;1.30;;
33858;SDS011;20156;47.486;12.074;2022-09-12T16:15:55;2.30;;;1.50;;
33858;SDS011;20156;47.486;12.074;2022-09-12T16:18:22;1.50;;;1.40;;
33858;SDS011;20156;47.486;12.074;2022-09-12T16:20:50;2.30;;;1.50;;
33858;SDS011;20156;47.486;12.074;2022-09-12T16:23:16;1.48;;;1.38;;
33858;SDS011;20156;47.486;12.074;2022-09-12T16:25:42;1.80;;;1.40;;
33858;SDS011;20156;47.486;12.074;2022-09-12T16:28:07;1.45;;;1.15;;
33858;SDS011;20156;47.486;12.074;2022-09-12T16:30:33;1.30;;;1.20;;
33858;SDS011;20156;47.486;12.074;2022-09-12T16:32:59;2.38;;;1.55;;
33858;SDS011;20156;47.486;12.074;2022-09-12T16:35:24;1.80;;;1.20;;
33858;SDS011;20156;47.486;12.074;2022-09-12T16:37:50;1.50;;;1.40;;
33858;SDS011;20156;47.486;12.074;2022-09-12T16:40:15;1.40;;;1.30;;
33858;SDS011;20156;47.486;12.074;2022-09-12T16:42:43;2.38;;;1.25;;
33858;SDS011;20156;47.486;12.074;2022-09-12T16:45:09;1.40;;;1.30;;
33858;SDS011;20156;47.486;12.074;2022-09-12T16:47:35;1.40;;;1.30;;
33858;SDS011;20156;47.486;12.074;2022-09-12T16:50:01;2.75;;;1.50;;
33858;SDS011;20156;47.486;12.074;2022-09-12T16:52:27;3.40;;;1.70;;
33858;SDS011;20156;47.486;12.074;2022-09-12T16:54:52;1.40;;;1.30;;
33858;SDS011;20156;47.486;12.074;2022-09-12T16:57:18;1.40;;;1.30;;
33858;SDS011;20156;47.486;12.074;2022-09-12T16:59:43;1.63;;;1.40;;
33858;SDS011;20156;47.486;12.074;2022-09-12T17:02:10;1.52;;;1.33;;
33858;SDS011;20156;47.486;12.074;2022-09-12T17:04:37;2.85;;;1.45;;
33858;SDS011;20156;47.486;12.074;2022-09-12T17:07:02;1.67;;;1.58;;
33858;SDS011;20156;47.486;12.074;2022-09-12T17:09:28;1.83;;;1.48;;
33858;SDS011;20156;47.486;12.074;2022-09-12T17:11:53;1.70;;;1.60;;
33858;SDS011;20156;47.486;12.074;2022-09-12T17:14:19;4.60;;;1.55;;
33858;SDS011;20156;47.486;12.074;2022-09-12T17:16:45;2.33;;;1.50;;
33858;SDS011;20156;47.486;12.074;2022-09-12T17:19:12;1.70;;;1.60;;
33858;SDS011;20156;47.486;12.074;2022-09-12T17:21:39;1.60;;;1.50;;
33858;SDS011;20156;47.486;12.074;2022-09-12T17:24:05;2.05;;;1.95;;
33858;SDS011;20156;47.486;12.074;2022-09-12T17:26:30;1.95;;;1.85;;
33858;SDS011;20156;47.486;12.074;2022-09-12T17:28:56;2.00;;;1.65;;
33858;SDS011;20156;47.486;12.074;2022-09-12T17:31:22;2.00;;;1.80;;
33858;SDS011;20156;47.486;12.074;2022-09-12T17:33:47;2.97;;;1.80;;
33858;SDS011;20156;47.486;12.074;2022-09-12T17:36:13;2.53;;;1.70;;
33858;SDS011;20156;47.486;12.074;2022-09-12T17:38:41;4.68;;;1.98;;
33858;SDS011;20156;47.486;12.074;2022-09-12T17:41:08;2.25;;;1.70;;
33858;SDS011;20156;47.486;12.074;2022-09-12T17:43:43;1.77;;;1.67;;
33858;SDS011;20156;47.486;12.074;2022-09-12T17:46:10;2.58;;;1.70;;